Time;durP1;ratioP1;P1;durP2;ratioP2;P2;SDS_P1;SDS_P2;PMS_P1;PMS_P2;Temp;Humidity;BMP_temperature;BMP_pressure;BME280_temperature;BME280_humidity;BME280_pressure;Samples;Min_cycle;Max_cycle;Signal;HPM_P1;HPM_P2
2023/10/12 00:02:29;;;;;;;13.13;2.95;;;;;;;8.68;100.00;100233.09;4666384;30;20058;-87
2023/10/12 00:41:52;;;;;;;8.40;1.92;;;;;;;8.31;100.00;100228.44;4713400;30;20071;-84
2023/10/12 00:57:53;;;;;;;;;;;;;;;;;;;;;
2023/10/12 01:04:53;;;;;;;8.00;2.05;;;;;;;7.64;100.00;100250.78;4781089;29;20200;-86
2023/10/12 01:08:10;;;;;;;9.65;1.42;;;;;;;7.65;100.00;100241.91;4768371;30;20043;-87
2023/10/12 01:11:26;;;;;;;3.35;1.00;;;;;;;7.73;100.00;100243.88;4762013;30;20040;-84
2023/10/12 01:19:24;;;;;;;9.55;1.40;;;;;;;7.94;100.00;100243.84;4832234;29;20084;-85
2023/10/12 01:22:31;;;;;;;7.72;1.33;;;;;;;8.01;100.00;100238.06;4802255;29;20053;-84
2023/10/12 01:26:19;;;;;;;6.45;1.30;;;;;;;8.11;100.00;100244.19;4804659;29;20055;-85
2023/10/12 01:28:57;;;;;;;8.38;1.15;;;;;;;8.10;100.00;100241.69;4786479;29;20080;-84
2023/10/12 01:31:46;;;;;;;7.07;1.10;;;;;;;8.11;100.00;100235.44;4800322;29;20508;-85
2023/10/12 01:35:19;;;;;;;14.82;2.10;;;;;;;8.20;100.00;100245.19;4821023;29;20045;-85
2023/10/12 01:38:11;;;;;;;4.97;1.17;;;;;;;8.14;100.00;100236.00;4805265;29;20047;-85
2023/10/12 01:55:49;;;;;;;7.15;1.65;;;;;;;8.11;100.00;100243.34;4781267;29;20045;-86
2023/10/12 01:59:34;;;;;;;5.28;1.30;;;;;;;8.16;100.00;100243.78;4769024;29;20126;-87
2023/10/12 02:15:15;;;;;;;11.77;1.13;;;;;;;8.10;100.00;100247.78;4793943;29;20083;-86
2023/10/12 02:17:58;;;;;;;7.60;1.20;;;;;;;8.10;100.00;100255.69;4816508;29;20522;-86
2023/10/12 02:20:38;;;;;;;5.50;1.20;;;;;;;8.03;100.00;100242.22;4807653;29;20042;-86
2023/10/12 02:27:00;;;;;;;4.45;1.40;;;;;;;8.02;100.00;100252.88;4808075;29;20038;-86
2023/10/12 02:30:06;;;;;;;3.83;1.15;;;;;;;8.08;100.00;100252.34;4819838;29;20053;-85
2023/10/12 02:33:07;;;;;;;5.45;1.42;;;;;;;8.07;100.00;100254.13;4815869;29;20754;-85
2023/10/12 02:35:54;;;;;;;6.93;1.23;;;;;;;7.97;100.00;100257.69;4807295;29;20843;-86
2023/10/12 02:38:50;;;;;;;1.83;0.50;;;;;;;7.87;100.00;100252.41;4804797;29;20111;-86
2023/10/12 02:42:02;;;;;;;;;;;;;;;;;;;;;
2023/10/12 02:45:17;;;;;;;3.63;1.33;;;;;;;7.55;100.00;100251.53;4805391;29;20092;-86
2023/10/12 02:48:06;;;;;;;4.50;1.27;;;;;;;7.55;100.00;100254.16;4811470;29;20110;-85
2023/10/12 02:50:57;;;;;;;12.05;1.23;;;;;;;7.57;100.00;100255.72;4800663;29;20467;-85
2023/10/12 02:53:48;;;;;;;4.95;1.63;;;;;;;7.54;100.00;100253.34;4818543;29;20046;-85
2023/10/12 02:56:24;;;;;;;8.43;1.83;;;;;;;7.47;100.00;100260.06;4834130;29;20448;-84
2023/10/12 02:58:52;;;;;;;;;;;;;;;7.37;100.00;100244.25;4811049;29;20148;-85
2023/10/12 03:01:21;;;;;;;4.45;1.73;;;;;;;7.29;100.00;100254.56;4807433;29;19917;-84
2023/10/12 03:03:50;;;;;;;5.05;1.65;;;;;;;7.20;100.00;100254.34;4823373;29;20053;-84
2023/10/12 03:06:24;;;;;;;3.67;1.30;;;;;;;7.19;100.00;100257.09;4805706;29;20045;-84
2023/10/12 03:09:36;;;;;;;4.53;1.13;;;;;;;7.13;100.00;100241.84;4816231;29;20149;-85
2023/10/12 03:11:42;;;;;;;7.05;1.65;;;;;;;7.08;100.00;100236.97;4808991;29;20061;-83
2023/10/12 03:14:16;;;;;;;11.38;1.88;;;;;;;7.08;100.00;100231.72;4819962;29;20038;-85
2023/10/12 03:16:47;;;;;;;4.93;1.50;;;;;;;7.09;100.00;100238.63;4806067;29;20050;-84
2023/10/12 03:19:26;;;;;;;5.57;1.10;;;;;;;7.12;100.00;100238.38;4806748;29;20476;-84
2023/10/12 03:22:19;;;;;;;5.63;1.40;;;;;;;7.14;100.00;100231.19;4818397;29;20197;-84
2023/10/12 03:25:19;;;;;;;2.88;1.27;;;;;;;7.07;100.00;100235.31;4803497;29;20051;-84
2023/10/12 03:27:53;;;;;;;3.85;1.30;;;;;;;7.07;100.00;100245.81;4809400;29;20114;-84
2023/10/12 03:30:34;;;;;;;3.65;1.50;;;;;;;7.08;100.00;100247.47;4792766;29;20479;-84
2023/10/12 03:33:11;;;;;;;4.07;1.25;;;;;;;7.04;100.00;100246.88;4821947;29;20034;-83
2023/10/12 03:35:51;;;;;;;7.40;1.85;;;;;;;7.09;100.00;100254.41;4832830;29;20042;-84
2023/10/12 03:38:25;;;;;;;3.47;1.50;;;;;;;7.03;100.00;100245.22;4800222;29;20035;-84
2023/10/12 03:41:45;;;;;;;3.65;0.98;;;;;;;7.03;100.00;100237.34;4796459;29;20054;-84
2023/10/12 03:43:40;;;;;;;3.08;1.00;;;;;;;7.07;100.00;100245.81;4796024;29;20135;-86
2023/10/12 03:53:56;;;;;;;2.95;0.60;;;;;;;6.98;100.00;100243.94;4815366;29;20053;-84
2023/10/12 03:56:28;;;;;;;2.80;0.80;;;;;;;6.87;100.00;100235.13;4786955;29;20075;-84
2023/10/12 03:59:06;;;;;;;3.53;0.55;;;;;;;6.88;100.00;100228.91;4803216;29;20045;-85
2023/10/12 04:01:35;;;;;;;2.10;0.85;;;;;;;6.97;100.00;100237.84;4823619;29;20452;-84
2023/10/12 04:10:13;;;;;;;0.80;0.45;;;;;;;6.72;100.00;100228.50;4827871;29;20086;-84
2023/10/12 04:12:49;;;;;;;1.48;0.70;;;;;;;6.68;100.00;100227.91;4790910;29;20047;-84
2023/10/12 04:15:10;;;;;;;0.82;0.65;;;;;;;6.70;100.00;100229.44;4796349;29;20061;-84
2023/10/12 04:17:52;;;;;;;1.55;0.88;;;;;;;6.71;100.00;100230.28;4815885;29;20042;-84
2023/10/12 04:20:22;;;;;;;0.93;0.68;;;;;;;6.74;100.00;100237.94;4801070;29;20041;-84
2023/10/12 04:28:09;;;;;;;8.65;1.33;;;;;;;6.69;100.00;100242.72;4814410;29;20045;-84
2023/10/12 04:31:20;;;;;;;3.40;1.00;;;;;;;6.55;100.00;100246.44;4798351;29;20042;-84
2023/10/12 04:33:24;;;;;;;0.95;0.75;;;;;;;6.44;100.00;100256.03;4828659;29;20131;-84
2023/10/12 04:38:29;;;;;;;0.60;0.60;;;;;;;6.45;100.00;100268.19;4820129;29;20042;-83
2023/10/12 04:43:39;;;;;;;4.25;0.70;;;;;;;6.41;100.00;100260.69;4832853;29;20149;-83
2023/10/12 04:46:26;;;;;;;2.60;1.10;;;;;;;6.42;100.00;100264.97;4818583;29;20861;-84
2023/10/12 04:49:24;;;;;;;6.40;1.02;;;;;;;6.41;100.00;100263.31;4825627;29;20569;-83
2023/10/12 04:51:40;;;;;;;1.80;0.70;;;;;;;6.44;100.00;100270.94;4804348;29;20079;-88
2023/10/12 04:54:17;;;;;;;1.92;0.50;;;;;;;6.40;100.00;100269.53;4807484;29;20038;-88
2023/10/12 04:56:57;;;;;;;5.28;0.85;;;;;;;6.40;100.00;100275.59;4808086;29;20038;-89
2023/10/12 04:59:28;;;;;;;1.75;0.77;;;;;;;6.35;100.00;100279.53;4820419;29;20039;-87
2023/10/12 05:09:38;;;;;;;4.75;0.60;;;;;;;5.77;100.00;100276.03;4825144;29;20054;-88
2023/10/12 05:12:04;;;;;;;5.70;1.00;;;;;;;5.81;100.00;100280.94;4796320;29;20045;-86
2023/10/12 05:14:31;;;;;;;1.63;0.60;;;;;;;5.80;100.00;100274.03;4807716;29;20042;-87
2023/10/12 05:16:56;;;;;;;4.55;1.00;;;;;;;5.86;100.00;100272.69;4811018;29;20038;-88
2023/10/12 05:19:22;;;;;;;1.70;0.80;;;;;;;5.90;100.00;100271.53;4819183;29;20137;-88
2023/10/12 05:21:48;;;;;;;2.83;1.08;;;;;;;5.91;100.00;100270.56;4823585;29;20082;-87
2023/10/12 05:24:14;;;;;;;2.72;0.93;;;;;;;5.95;100.00;100279.03;4812483;29;20041;-88
2023/10/12 05:26:39;;;;;;;1.58;0.85;;;;;;;6.00;100.00;100295.28;4811221;29;20035;-87
2023/10/12 05:32:05;;;;;;;3.97;0.90;;;;;;;6.08;100.00;100287.66;4821613;29;20066;-88
2023/10/12 05:37:09;;;;;;;3.28;0.70;;;;;;;5.98;100.00;100285.84;4824049;29;20077;-87
2023/10/12 05:39:43;;;;;;;6.65;1.55;;;;;;;5.90;100.00;100289.06;4803382;29;20042;-88
2023/10/12 05:42:09;;;;;;;3.53;0.70;;;;;;;5.74;100.00;100289.38;4824013;29;20050;-87
2023/10/12 05:44:42;;;;;;;10.70;0.82;;;;;;;5.62;100.00;100292.00;4808199;29;20038;-87
2023/10/12 05:47:13;;;;;;;1.48;0.80;;;;;;;5.49;100.00;100283.38;4811214;29;20483;-87
2023/10/12 05:49:42;;;;;;;2.78;0.50;;;;;;;5.46;100.00;100287.88;4780543;29;20046;-88
2023/10/12 05:52:09;;;;;;;10.68;0.60;;;;;;;5.50;100.00;100275.41;4793127;29;20392;-87
2023/10/12 05:54:39;;;;;;;18.02;0.90;;;;;;;5.55;100.00;100282.91;4838959;29;20094;-88
2023/10/12 05:57:19;;;;;;;17.45;0.65;;;;;;;5.52;100.00;100278.75;4808027;29;20416;-87
2023/10/12 05:59:48;;;;;;;17.98;0.65;;;;;;;5.52;100.00;100272.66;4805417;29;20066;-87
2023/10/12 06:02:17;;;;;;;44.55;1.55;;;;;;;5.29;100.00;100264.72;4809131;29;20034;-87
2023/10/12 06:04:47;;;;;;;50.58;1.55;;;;;;;5.05;100.00;100263.81;4804931;29;20947;-87
2023/10/12 06:07:12;;;;;;;91.68;2.33;;;;;;;4.87;100.00;100265.16;4822474;29;20038;-87
2023/10/12 06:09:38;;;;;;;64.38;3.15;;;;;;;4.74;100.00;100255.59;4773068;29;20041;-86
2023/10/12 06:12:09;;;;;;;28.30;3.75;;;;;;;4.70;100.00;100261.97;4806277;29;20496;-87
2023/10/12 06:14:37;;;;;;;5.28;2.13;;;;;;;4.67;100.00;100264.81;4794913;29;20072;-88
2023/10/12 06:17:05;;;;;;;6.18;1.02;;;;;;;4.65;100.00;100264.91;4815480;29;20034;-88
2023/10/12 06:19:37;;;;;;;3.53;0.82;;;;;;;4.69;100.00;100262.94;4822841;29;20681;-88
2023/10/12 06:22:24;;;;;;;1.38;0.95;;;;;;;4.81;100.00;100272.50;4819586;29;20420;-88
2023/10/12 06:24:52;;;;;;;2.20;1.30;;;;;;;4.90;100.00;100275.41;4819651;29;20042;-86
2023/10/12 06:29:47;;;;;;;1.88;0.60;;;;;;;5.06;100.00;100275.13;4809409;29;20042;-86
2023/10/12 06:32:19;;;;;;;3.03;0.50;;;;;;;5.00;100.00;100276.41;4797638;29;20484;-87
2023/10/12 06:35:12;;;;;;;1.27;0.70;;;;;;;4.95;100.00;100279.34;4792066;29;20401;-87
2023/10/12 06:45:52;;;;;;;3.78;0.60;;;;;;;5.19;100.00;100288.19;4820070;29;20099;-86
2023/10/12 06:48:40;;;;;;;2.72;0.50;;;;;;;5.28;100.00;100284.03;4817073;29;20030;-88
2023/10/12 06:51:10;;;;;;;5.15;0.95;;;;;;;5.31;100.00;100282.03;4823151;29;20042;-88
2023/10/12 06:53:38;;;;;;;2.97;0.65;;;;;;;5.41;100.00;100284.81;4820946;29;20443;-87
2023/10/12 06:59:07;;;;;;;2.15;0.57;;;;;;;5.60;100.00;100293.91;4820023;29;20031;-87
2023/10/12 07:01:38;;;;;;;4.18;0.80;;;;;;;5.61;100.00;100284.22;4821287;29;20041;-88
2023/10/12 07:04:12;;;;;;;1.98;0.60;;;;;;;5.62;100.00;100280.66;4797255;29;20038;-88
2023/10/12 07:07:07;;;;;;;4.18;0.60;;;;;;;5.67;100.00;100287.22;4793884;29;20230;-88
2023/10/12 07:09:39;;;;;;;3.25;0.60;;;;;;;5.66;100.00;100282.94;4811341;29;20046;-88
2023/10/12 07:12:11;;;;;;;6.07;0.85;;;;;;;5.64;100.00;100281.41;4796542;29;20054;-88
2023/10/12 07:14:42;;;;;;;4.63;0.50;;;;;;;5.67;100.00;100292.47;4803249;29;20038;-87
2023/10/12 07:17:09;;;;;;;7.70;0.60;;;;;;;5.64;100.00;100300.56;4806294;29;20043;-87
2023/10/12 07:19:40;;;;;;;4.28;0.82;;;;;;;5.65;100.00;100296.16;4794603;29;20046;-88
2023/10/12 07:22:09;;;;;;;4.32;0.60;;;;;;;5.64;100.00;100287.47;4807837;29;20058;-87
2023/10/12 07:24:38;;;;;;;1.42;0.55;;;;;;;5.79;100.00;100289.88;4792673;29;20095;-88
2023/10/12 07:27:11;;;;;;;2.83;0.50;;;;;;;5.80;100.00;100295.00;4825663;29;20072;-88
2023/10/12 07:29:44;;;;;;;4.20;0.75;;;;;;;5.76;100.00;100297.97;4808879;29;20079;-85
2023/10/12 07:35:05;;;;;;;1.00;0.50;;;;;;;5.43;100.00;100287.31;4814375;29;20057;-89
2023/10/12 07:37:41;;;;;;;5.68;1.30;;;;;;;5.23;100.00;100284.38;4808001;29;20401;-89
2023/10/12 07:40:21;;;;;;;2.28;1.00;;;;;;;5.15;100.00;100291.94;4805609;29;20072;-89
2023/10/12 07:42:49;;;;;;;8.70;2.50;;;;;;;5.15;100.00;100295.41;4804611;29;20046;-91
2023/10/12 07:45:19;;;;;;;3.17;1.48;;;;;;;5.36;100.00;100292.16;4806836;29;20038;-90
2023/10/12 07:48:06;;;;;;;4.15;1.35;;;;;;;5.61;100.00;100302.56;4817731;29;20117;-90
2023/10/12 07:50:37;;;;;;;6.15;1.60;;;;;;;5.70;100.00;100297.47;4807379;29;20061;-88
2023/10/12 07:53:07;;;;;;;11.25;1.80;;;;;;;5.84;100.00;100296.44;4810827;29;20210;-89
2023/10/12 07:55:41;;;;;;;2.55;1.70;;;;;;;5.95;100.00;100295.63;4806636;29;20045;-89
2023/10/12 07:58:14;;;;;;;6.20;1.85;;;;;;;6.08;100.00;100278.97;4823307;29;20038;-91
2023/10/12 08:00:51;;;;;;;8.00;2.47;;;;;;;6.22;100.00;100271.78;4805263;29;20042;-89
2023/10/12 08:03:25;;;;;;;7.90;3.28;;;;;;;6.31;100.00;100278.94;4791562;29;20480;-87
2023/10/12 08:05:56;;;;;;;9.07;3.83;;;;;;;6.33;100.00;100282.28;4791892;29;20038;-90
2023/10/12 08:08:37;;;;;;;12.02;3.38;;;;;;;6.32;100.00;100299.00;4791848;29;20129;-89
2023/10/12 08:11:10;;;;;;;11.27;3.08;;;;;;;6.40;100.00;100286.09;4805741;29;20458;-90
2023/10/12 08:13:39;;;;;;;9.63;2.70;;;;;;;6.53;100.00;100291.22;4794019;29;20053;-90
2023/10/12 08:16:13;;;;;;;6.78;2.78;;;;;;;6.58;100.00;100286.44;4795700;29;20122;-90
2023/10/12 08:19:08;;;;;;;7.93;3.20;;;;;;;6.67;100.00;100291.94;4796844;29;20035;-90
2023/10/12 08:21:38;;;;;;;10.52;3.15;;;;;;;6.75;100.00;100286.06;4793430;29;20050;-82
2023/10/12 08:31:55;;;;;;;6.82;3.05;;;;;;;7.08;100.00;100281.66;4833794;29;20034;-82
2023/10/12 08:39:39;;;;;;;7.80;3.10;;;;;;;7.30;100.00;100285.97;4828337;29;20078;-82
2023/10/12 08:44:55;;;;;;;10.57;2.57;;;;;;;7.48;100.00;100269.63;4814133;29;20096;-83
2023/10/12 08:47:31;;;;;;;5.78;1.58;;;;;;;7.57;100.00;100286.44;4805921;29;20443;-83
2023/10/12 08:52:31;;;;;;;6.35;1.30;;;;;;;7.62;100.00;100278.16;4817755;29;20034;-83
2023/10/12 08:55:13;;;;;;;4.82;1.40;;;;;;;7.71;100.00;100273.91;4807331;29;20407;-82
2023/10/12 08:58:03;;;;;;;6.53;1.48;;;;;;;7.75;100.00;100268.28;4820994;29;20121;-82
2023/10/12 09:03:14;;;;;;;10.05;1.40;;;;;;;7.97;100.00;100261.16;4791821;29;20065;-83
2023/10/12 09:05:41;;;;;;;16.83;3.10;;;;;;;8.05;100.00;100271.03;4819145;29;20037;-82
2023/10/12 09:10:54;;;;;;;6.20;2.08;;;;;;;8.18;100.00;100282.19;4798279;29;20137;-82
2023/10/12 09:13:21;;;;;;;;;;;;;;;8.20;100.00;100279.41;4820397;29;20138;-81
2023/10/12 09:15:54;;;;;;;9.85;1.92;;;;;;;8.30;100.00;100282.91;4818617;29;19916;-82
2023/10/12 09:18:24;;;;;;;7.68;1.90;;;;;;;8.39;100.00;100289.16;4826562;29;20042;-83
2023/10/12 09:36:43;;;;;;;9.98;2.28;;;;;;;8.62;100.00;100273.19;4831232;29;20457;-82
2023/10/12 09:39:12;;;;;;;7.57;1.83;;;;;;;8.68;100.00;100274.41;4819978;29;20046;-83
2023/10/12 09:41:40;;;;;;;10.98;1.50;;;;;;;8.65;100.00;100270.28;4789279;29;20104;-83
2023/10/12 09:44:07;;;;;;;8.73;1.38;;;;;;;8.66;100.00;100281.66;4825320;29;20046;-83
2023/10/12 09:46:34;;;;;;;12.85;1.67;;;;;;;8.65;100.00;100275.53;4804568;29;20038;-84
2023/10/12 09:49:06;;;;;;;9.85;1.50;;;;;;;8.67;100.00;100286.78;4799106;29;20141;-83
2023/10/12 09:51:36;;;;;;;12.25;1.50;;;;;;;8.66;100.00;100285.09;4794223;29;20058;-84
2023/10/12 09:54:15;;;;;;;7.93;2.50;;;;;;;8.64;100.00;100276.53;4801372;29;20042;-84
2023/10/12 09:56:46;;;;;;;7.65;1.70;;;;;;;8.64;100.00;100276.53;4790118;29;20042;-84
2023/10/12 09:59:18;;;;;;;9.82;1.30;;;;;;;8.67;100.00;100278.88;4797887;29;20527;-84
2023/10/12 10:07:26;;;;;;;10.02;2.05;;;;;;;8.85;100.00;100286.13;4822449;29;20034;-84
2023/10/12 10:09:54;;;;;;;24.63;11.20;;;;;;;9.01;100.00;100290.84;4803796;29;20047;-83
2023/10/12 10:12:22;;;;;;;74.65;38.88;;;;;;;9.10;100.00;100291.81;4830991;29;20061;-84
2023/10/12 10:15:10;;;;;;;11.32;1.85;;;;;;;9.16;100.00;100287.78;4792975;29;20030;-83
2023/10/12 10:17:37;;;;;;;12.05;1.88;;;;;;;9.10;100.00;100278.63;4806644;29;20046;-84
2023/10/12 10:20:34;;;;;;;13.88;2.20;;;;;;;9.17;100.00;100271.00;4808513;29;20050;-83
2023/10/12 10:23:03;;;;;;;11.93;1.40;;;;;;;9.34;100.00;100284.44;4808891;29;20054;-84
2023/10/12 10:25:35;;;;;;;7.93;1.70;;;;;;;9.31;100.00;100272.38;4816120;29;20046;-84
2023/10/12 10:28:09;;;;;;;12.70;2.78;;;;;;;9.47;100.00;100285.00;4822389;29;20034;-84
2023/10/12 10:30:45;;;;;;;10.18;1.90;;;;;;;9.63;100.00;100286.22;4828557;29;20443;-82
2023/10/12 10:33:13;;;;;;;10.70;2.10;;;;;;;9.70;100.00;100291.78;4793123;29;20530;-84
2023/10/12 10:35:56;;;;;;;8.95;2.17;;;;;;;9.85;100.00;100284.22;4814428;29;20070;-85
2023/10/12 10:38:36;;;;;;;10.07;2.00;;;;;;;9.88;100.00;100281.28;4814398;29;20042;-84
2023/10/12 10:41:17;;;;;;;13.18;1.77;;;;;;;9.96;100.00;100281.41;4818883;29;20039;-85
2023/10/12 10:43:46;;;;;;;14.40;1.95;;;;;;;9.99;100.00;100272.34;4808359;29;20041;-84
2023/10/12 10:46:16;;;;;;;12.45;2.22;;;;;;;10.11;100.00;100279.16;4806744;29;20045;-84
2023/10/12 10:48:49;;;;;;;6.97;1.88;;;;;;;10.20;100.00;100274.78;4824896;29;20043;-84
2023/10/12 10:51:19;;;;;;;11.00;1.55;;;;;;;10.29;100.00;100276.53;4815048;29;20035;-85
2023/10/12 10:53:52;;;;;;;11.27;2.05;;;;;;;10.30;100.00;100277.38;4802538;29;20050;-83
2023/10/12 10:56:34;;;;;;;13.55;1.92;;;;;;;10.41;100.00;100271.06;4794165;29;20392;-85
2023/10/12 10:59:06;;;;;;;9.95;1.83;;;;;;;10.42;100.00;100262.16;4801666;29;20283;-84
2023/10/12 11:01:31;;;;;;;10.82;2.30;;;;;;;10.43;100.00;100264.66;4793959;29;20051;-85
2023/10/12 11:03:58;;;;;;;10.25;2.33;;;;;;;10.46;100.00;100263.56;4799510;29;20151;-84
2023/10/12 11:06:28;;;;;;;19.27;1.92;;;;;;;10.56;100.00;100266.13;4800018;29;20484;-85
2023/10/12 11:09:07;;;;;;;17.15;2.40;;;;;;;10.61;100.00;100269.16;4813806;29;20039;-85
2023/10/12 11:11:37;;;;;;;11.00;1.55;;;;;;;10.67;100.00;100267.75;4804289;29;20046;-85
2023/10/12 11:14:05;;;;;;;10.48;1.60;;;;;;;10.75;100.00;100265.19;4797493;29;20050;-84
2023/10/12 11:16:33;;;;;;;10.80;1.77;;;;;;;10.75;100.00;100251.97;4806532;29;20042;-83
2023/10/12 11:18:59;;;;;;;15.77;1.65;;;;;;;10.79;100.00;100240.13;4792717;29;20078;-83
2023/10/12 11:21:26;;;;;;;11.15;4.68;;;;;;;10.88;100.00;100245.47;4834979;29;20135;-83
2023/10/12 11:24:02;;;;;;;17.92;2.60;;;;;;;10.94;100.00;100239.56;4821000;29;20074;-84
2023/10/12 11:26:29;;;;;;;12.15;3.00;;;;;;;10.87;100.00;100228.78;4815568;29;20457;-85
2023/10/12 11:29:11;;;;;;;12.68;2.28;;;;;;;10.87;100.00;100227.94;4806195;29;20385;-83
2023/10/12 11:31:37;;;;;;;7.68;1.65;;;;;;;10.85;100.00;100228.09;4816259;29;20377;-83
2023/10/12 11:34:07;;;;;;;13.93;2.13;;;;;;;10.90;100.00;100222.34;4791191;29;20526;-84
2023/10/12 11:36:35;;;;;;;12.63;1.65;;;;;;;10.90;100.00;100215.25;4805172;29;20042;-84
2023/10/12 11:39:18;;;;;;;16.70;1.98;;;;;;;11.00;100.00;100209.03;4791363;29;20035;-84
2023/10/12 11:42:03;;;;;;;7.50;2.58;;;;;;;11.06;100.00;100202.31;4835696;29;20492;-84
2023/10/12 11:44:42;;;;;;;13.02;1.63;;;;;;;11.13;100.00;100200.72;4806926;29;20126;-85
2023/10/12 11:47:28;;;;;;;12.45;2.08;;;;;;;11.11;100.00;100194.75;4821309;29;20034;-83
2023/10/12 11:49:57;;;;;;;10.18;1.92;;;;;;;11.19;100.00;100193.97;4789025;29;20048;-85
2023/10/12 11:52:30;;;;;;;11.30;1.92;;;;;;;11.31;100.00;100184.78;4826420;29;20038;-85
2023/10/12 11:55:24;;;;;;;12.20;1.48;;;;;;;11.53;100.00;100179.97;4818863;29;20118;-84
2023/10/12 11:57:54;;;;;;;7.40;2.20;;;;;;;11.64;100.00;100176.22;4798157;29;20046;-85
2023/10/12 12:00:31;;;;;;;7.43;1.50;;;;;;;11.68;100.00;100172.25;4788791;29;20146;-84
2023/10/12 12:02:59;;;;;;;13.70;1.58;;;;;;;11.66;100.00;100164.47;4790619;29;20042;-85
2023/10/12 12:05:29;;;;;;;8.38;1.42;;;;;;;11.66;100.00;100164.47;4806710;29;20042;-84
2023/10/12 12:07:57;;;;;;;10.40;1.83;;;;;;;11.69;100.00;100154.56;4822523;29;20031;-84
2023/10/12 12:11:04;;;;;;;10.43;1.52;;;;;;;11.72;100.00;100152.41;4801957;29;20129;-85
2023/10/12 12:13:15;;;;;;;11.88;1.77;;;;;;;11.82;100.00;100138.25;4793716;29;20050;-83
2023/10/12 12:15:44;;;;;;;10.85;1.92;;;;;;;11.89;100.00;100137.44;4802981;29;20038;-83
2023/10/12 12:18:20;;;;;;;7.20;1.02;;;;;;;11.91;100.00;100140.72;4803494;29;20081;-85
2023/10/12 12:20:56;;;;;;;10.00;2.03;;;;;;;12.00;100.00;100146.06;4818224;29;20130;-84
2023/10/12 12:23:28;;;;;;;7.60;1.98;;;;;;;12.02;100.00;100136.97;4783042;29;20119;-84
2023/10/12 12:26:05;;;;;;;9.63;1.50;;;;;;;12.12;100.00;100133.38;4814487;29;20134;-83
2023/10/12 12:28:43;;;;;;;13.10;2.03;;;;;;;12.15;100.00;100127.75;4801668;29;20035;-83
2023/10/12 12:31:13;;;;;;;10.43;1.48;;;;;;;12.22;100.00;100122.63;4796222;29;20039;-83
2023/10/12 12:33:41;;;;;;;61.97;30.42;;;;;;;12.32;100.00;100120.66;4815773;29;20038;-84
2023/10/12 12:36:10;;;;;;;9.63;2.83;;;;;;;12.42;100.00;100109.06;4770981;29;20034;-84
2023/10/12 12:41:05;;;;;;;10.15;2.00;;;;;;;12.52;100.00;100107.91;4788070;29;20035;-83
2023/10/12 12:43:35;;;;;;;20.08;2.53;;;;;;;12.49;100.00;100099.47;4787963;29;20043;-81
2023/10/12 12:46:01;;;;;;;9.65;1.95;;;;;;;12.46;100.00;100100.63;4797976;29;20043;-85
2023/10/12 12:48:26;;;;;;;9.88;1.65;;;;;;;12.49;100.00;100100.28;4801297;29;21385;-84
2023/10/12 12:50:52;;;;;;;15.60;8.88;;;;;;;12.54;100.00;100097.16;4772440;29;20046;-81
2023/10/12 12:53:20;;;;;;;11.90;2.00;;;;;;;12.58;100.00;100097.66;4791693;29;20043;-84
2023/10/12 12:55:46;;;;;;;13.07;1.70;;;;;;;12.65;100.00;100083.56;4787587;29;20373;-82
2023/10/12 12:58:17;;;;;;;10.48;2.95;;;;;;;12.75;100.00;100083.38;4787311;29;20405;-83
2023/10/12 13:00:46;;;;;;;13.90;5.10;;;;;;;12.84;100.00;100078.06;4799808;29;20047;-82
2023/10/12 13:03:13;;;;;;;8.13;1.80;;;;;;;12.92;100.00;100074.56;4796011;29;20488;-82
2023/10/12 13:05:39;;;;;;;19.10;2.50;;;;;;;12.96;100.00;100058.16;4788354;29;20046;-81
2023/10/12 13:08:07;;;;;;;10.43;1.92;;;;;;;13.05;100.00;100058.13;4783170;29;20058;-82
2023/10/12 13:10:36;;;;;;;10.15;1.90;;;;;;;13.19;100.00;100057.41;4792166;29;20404;-81
2023/10/12 13:13:03;;;;;;;18.90;8.40;;;;;;;13.15;100.00;100054.25;4776429;29;20043;-80
2023/10/12 13:15:31;;;;;;;12.10;3.03;;;;;;;13.19;100.00;100051.25;4783905;29;20047;-82
2023/10/12 13:18:00;;;;;;;10.80;2.20;;;;;;;13.14;100.00;100047.31;4780076;29;20054;-82
2023/10/12 13:20:31;;;;;;;9.10;2.70;;;;;;;13.14;100.00;100049.97;4780226;29;20257;-82
2023/10/12 13:22:58;;;;;;;7.70;1.92;;;;;;;13.12;100.00;100040.53;4816052;29;20540;-83
2023/10/12 13:25:26;;;;;;;11.30;1.85;;;;;;;13.16;100.00;100033.88;4791297;29;20046;-82
2023/10/12 13:27:52;;;;;;;9.65;1.63;;;;;;;13.20;100.00;100039.66;4812784;29;20042;-83
2023/10/12 13:30:18;;;;;;;8.50;3.33;;;;;;;13.18;100.00;100041.66;4809634;29;20038;-85
2023/10/12 13:32:47;;;;;;;7.50;1.88;;;;;;;13.21;100.00;100033.34;4801490;29;20045;-82
2023/10/12 13:35:28;;;;;;;12.70;2.10;;;;;;;13.18;100.00;100025.75;4808111;29;20037;-83
2023/10/12 13:38:04;;;;;;;11.57;3.00;;;;;;;13.19;100.00;100027.38;4821712;29;20034;-84
2023/10/12 13:40:30;;;;;;;8.02;1.50;;;;;;;13.14;100.00;100027.91;4820354;29;20456;-83
2023/10/12 13:43:07;;;;;;;7.28;2.00;;;;;;;13.12;100.00;100021.97;4829262;29;20070;-85
2023/10/12 13:45:35;;;;;;;6.72;1.42;;;;;;;13.13;100.00;100019.13;4793102;29;20053;-85
2023/10/12 13:48:01;;;;;;;6.53;2.38;;;;;;;13.07;100.00;100017.16;4807059;29;20062;-85
2023/10/12 13:50:27;;;;;;;6.03;1.65;;;;;;;13.05;100.00;100029.78;4820227;29;20393;-85
2023/10/12 13:52:53;;;;;;;6.65;1.38;;;;;;;13.03;100.00;100021.13;4826429;29;20038;-84
2023/10/12 13:55:19;;;;;;;6.88;1.88;;;;;;;13.04;100.00;100014.84;4816591;29;20126;-85
2023/10/12 13:57:55;;;;;;;8.82;2.92;;;;;;;13.08;100.00;100013.50;4801523;29;20039;-85
2023/10/12 14:00:25;;;;;;;8.38;2.35;;;;;;;13.06;100.00;100012.03;4794531;29;20027;-85
2023/10/12 14:02:58;;;;;;;9.18;1.92;;;;;;;13.07;100.00;100011.03;4817061;29;20029;-85
2023/10/12 14:05:27;;;;;;;7.20;1.77;;;;;;;13.06;100.00;100012.84;4816976;29;20068;-84
2023/10/12 14:08:00;;;;;;;4.28;1.45;;;;;;;13.07;100.00;100005.72;4805206;29;20034;-84
2023/10/12 14:10:26;;;;;;;5.32;1.35;;;;;;;13.02;100.00;100008.88;4808688;29;20038;-82
2023/10/12 14:12:56;;;;;;;6.32;1.50;;;;;;;12.99;100.00;100001.28;4804130;29;20079;-84
2023/10/12 14:15:27;;;;;;;7.15;1.58;;;;;;;13.02;100.00;99991.16;4799576;29;20286;-84
2023/10/12 14:17:56;;;;;;;10.77;1.85;;;;;;;12.97;100.00;99993.47;4821555;29;20038;-83
2023/10/12 14:20:28;;;;;;;8.43;1.52;;;;;;;12.98;100.00;99991.66;4799640;29;20117;-83
2023/10/12 14:22:58;;;;;;;7.93;1.90;;;;;;;13.00;100.00;99979.88;4801240;29;20054;-81
2023/10/12 14:25:28;;;;;;;6.72;1.50;;;;;;;13.03;100.00;99968.91;4815137;29;20045;-84
2023/10/12 14:27:55;;;;;;;8.63;1.55;;;;;;;13.04;100.00;99972.41;4804329;29;20481;-83
2023/10/12 14:30:28;;;;;;;3.55;1.17;;;;;;;13.05;100.00;99978.53;4835832;29;20118;-82
2023/10/12 14:33:02;;;;;;;8.50;1.75;;;;;;;13.11;100.00;99986.63;4812224;29;20031;-82
2023/10/12 14:35:29;;;;;;;8.98;1.42;;;;;;;13.07;100.00;99985.31;4804196;29;20046;-83
2023/10/12 14:37:57;;;;;;;5.47;1.50;;;;;;;13.06;100.00;99974.88;4790591;29;20488;-83
2023/10/12 14:40:31;;;;;;;12.98;9.00;;;;;;;13.05;100.00;99976.72;4813393;29;20038;-84
2023/10/12 14:42:58;;;;;;;12.90;4.03;;;;;;;13.06;100.00;99977.53;4805080;29;20038;-84
2023/10/12 14:45:24;;;;;;;11.98;2.25;;;;;;;13.05;100.00;99978.53;4804540;29;20034;-83
2023/10/12 14:47:54;;;;;;;6.15;1.40;;;;;;;13.08;100.00;99975.53;4801454;29;20042;-81
2023/10/12 14:50:20;;;;;;;12.15;1.73;;;;;;;13.06;100.00;99974.88;4802600;29;20396;-82
2023/10/12 14:52:46;;;;;;;52.00;39.40;;;;;;;13.08;100.00;99965.75;4787494;29;20038;-82
2023/10/12 14:55:12;;;;;;;25.08;17.95;;;;;;;13.08;100.00;99957.78;4779129;29;20699;-81
2023/10/12 14:57:39;;;;;;;6.65;2.33;;;;;;;13.06;100.00;99940.41;4802302;29;20526;-82
2023/10/12 15:00:22;;;;;;;8.40;2.20;;;;;;;13.08;100.00;99939.22;4815240;29;20069;-82
2023/10/12 15:02:52;;;;;;;4.85;1.13;;;;;;;13.07;100.00;99940.22;4797179;29;20517;-81
2023/10/12 15:05:25;;;;;;;6.57;1.70;;;;;;;13.00;100.00;99940.09;4817009;29;20499;-82
2023/10/12 15:07:52;;;;;;;10.43;1.35;;;;;;;12.92;100.00;99934.81;4810396;29;20093;-81
2023/10/12 15:10:18;;;;;;;12.23;1.60;;;;;;;12.90;100.00;99926.19;4799314;29;20066;-82